Flugplatz Schotten (Götzen), Vogelsbergkreis (UL)

Hier findest Du alle Informationen zum Flugplatz Schotten (Götzen), Vogelsbergkreis (UL).

Informationen für Piloten zum Flugplatz Schotten (Götzen), Vogelsbergkreis

Hier findest Du alle relevanten Informationen, die Du als Pilot benötigst, um Schotten (Götzen), Vogelsbergkreis anzufliegen.

Flugplatz: Schotten (Götzen), Vogelsbergkreis ICAO-Code: UL Flugplatz
Frequenz Turm: 123,500 Mhz GAFOR Gebiet: 43
Frequenz Ground: 123,500 Mhz Mogas: ja
Platzrunde: N 2000 ft Landegebühr: 2,5 €
Platzhöhe: - Sunrise: 03:26 Uhr UTC
Pisten: 05/23 - 400 m x 30 m, GRAS Sunset: 19:13 Uhr UTC

Mitglieder, die in Schotten (Götzen), Vogelsbergkreis fliegen

Flugwetter am Flugplatz Schotten (Götzen), Vogelsbergkreis

Die METAR Information stammen aus EDDF (69.07 km entfernt).

METAR Code:
2022/03/27 12:20
EDDF 271220Z 03005KT 320V090 9999 FEW048 19/06 Q1028 NOSIG

Flugschulen am Flugplatz Schotten (Götzen), Vogelsbergkreis

Am Flugplatz Schotten (Götzen), Vogelsbergkreis gibt es leider keine Flugschule.

Benachbarte Flugplätze und Flugschulen

Es gibt 16 weitere Flugplätze in einem Umkreis von 50 km um den Flugplatz Schotten (Götzen), Vogelsbergkreis.

Jetzt anmelden

Passwort vergessen

Umfrage Archiv

Sendet Ihr ADS-B und/oder FLARM?

Ja
81.6 %
Nein
18.4 %
Stimmen: 147 | Diskussion
Anzeige: Roland Aircraft
Statistik Alle Mitglieder

Aktuell sind 55 Besucher online.

Anzeige: ULPower Aero Engines Anzeige: Pocket FMS